< < Back
Terminal Aerodrome Forecast


Current Version              Previous Versions:   1  2  3  4  5  6  7  8  9  

Terminal Aerodrome Forecast

978
FTUS44 KBMX 300520
TAFMGM
TAF
KMGM 300520Z 3006/3106 12004KT P6SM FEW250
      TEMPO 3011/3013 00000KT 6SM BR
     FM301300 10003KT P6SM SKC
     FM301800 17007KT P6SM SCT050=

Latest METAR

181
SAUS80 KWBC 301000 RRA
MTRMGM
METAR KMGM 300953Z 00000KT 10SM CLR 19/17 A3011 RMK AO2 SLP192
T01890172


USA.gov is the U.S. government's official web portal to all federal, state and local government web resources and services.